sensor_id;sensor_type;location;lat;lon;timestamp;pressure;altitude;pressure_sealevel;temperature;humidity
5283;BME280;15376;48.540;9.268;2024-02-16T00:00:57;97365.09;;;8.23;100.00
5283;BME280;15376;48.540;9.268;2024-02-16T00:03:22;97387.25;;;8.38;100.00
5283;BME280;15376;48.540;9.268;2024-02-16T00:05:48;97389.50;;;8.41;100.00
5283;BME280;15376;48.540;9.268;2024-02-16T00:08:17;97386.03;;;8.41;100.00
5283;BME280;15376;48.540;9.268;2024-02-16T00:10:42;97374.16;;;8.28;100.00
5283;BME280;15376;48.540;9.268;2024-02-16T00:13:08;97380.81;;;8.32;100.00
5283;BME280;15376;48.540;9.268;2024-02-16T00:15:33;97363.31;;;8.15;100.00
5283;BME280;15376;48.540;9.268;2024-02-16T00:17:58;97383.13;;;8.19;100.00
5283;BME280;15376;48.540;9.268;2024-02-16T00:20:24;97382.81;;;8.14;100.00
5283;BME280;15376;48.540;9.268;2024-02-16T00:22:49;97386.94;;;8.17;100.00
5283;BME280;15376;48.540;9.268;2024-02-16T00:25:15;97382.47;;;8.17;100.00
5283;BME280;15376;48.540;9.268;2024-02-16T00:27:40;97383.81;;;8.13;100.00
5283;BME280;15376;48.540;9.268;2024-02-16T00:30:06;97363.38;;;7.99;100.00
5283;BME280;15376;48.540;9.268;2024-02-16T00:32:32;97378.53;;;8.05;100.00
5283;BME280;15376;48.540;9.268;2024-02-16T00:34:57;97386.78;;;8.10;100.00
5283;BME280;15376;48.540;9.268;2024-02-16T00:37:23;97379.50;;;8.12;100.00
5283;BME280;15376;48.540;9.268;2024-02-16T00:39:49;97388.44;;;8.11;100.00
5283;BME280;15376;48.540;9.268;2024-02-16T00:42:15;97372.59;;;8.03;100.00
5283;BME280;15376;48.540;9.268;2024-02-16T00:44:40;97358.09;;;7.99;100.00
5283;BME280;15376;48.540;9.268;2024-02-16T00:47:05;97370.91;;;8.10;100.00
5283;BME280;15376;48.540;9.268;2024-02-16T00:49:32;97345.84;;;7.98;100.00
5283;BME280;15376;48.540;9.268;2024-02-16T00:51:57;97366.63;;;8.01;100.00
5283;BME280;15376;48.540;9.268;2024-02-16T00:54:23;97360.03;;;8.05;100.00
5283;BME280;15376;48.540;9.268;2024-02-16T00:56:48;97357.84;;;8.09;100.00
5283;BME280;15376;48.540;9.268;2024-02-16T00:59:13;97362.97;;;8.18;100.00
5283;BME280;15376;48.540;9.268;2024-02-16T01:01:39;97365.13;;;8.15;100.00
5283;BME280;15376;48.540;9.268;2024-02-16T01:04:04;97317.81;;;7.81;100.00
5283;BME280;15376;48.540;9.268;2024-02-16T01:06:32;97335.91;;;8.00;100.00
5283;BME280;15376;48.540;9.268;2024-02-16T01:08:57;97362.97;;;8.18;100.00
5283;BME280;15376;48.540;9.268;2024-02-16T01:11:22;97359.63;;;8.24;100.00
5283;BME280;15376;48.540;9.268;2024-02-16T01:13:48;97332.56;;;8.06;100.00
5283;BME280;15376;48.540;9.268;2024-02-16T01:16:13;97338.84;;;8.13;100.00
5283;BME280;15376;48.540;9.268;2024-02-16T01:18:39;97354.03;;;8.19;100.00
5283;BME280;15376;48.540;9.268;2024-02-16T01:21:05;97357.97;;;8.23;100.00
5283;BME280;15376;48.540;9.268;2024-02-16T01:23:30;97366.56;;;8.25;100.00
5283;BME280;15376;48.540;9.268;2024-02-16T01:25:56;97362.97;;;8.18;100.00
5283;BME280;15376;48.540;9.268;2024-02-16T01:28:21;97346.47;;;8.08;100.00
5283;BME280;15376;48.540;9.268;2024-02-16T01:30:48;97356.34;;;8.14;100.00
5283;BME280;15376;48.540;9.268;2024-02-16T01:33:13;97378.97;;;8.25;100.00
5283;BME280;15376;48.540;9.268;2024-02-16T01:35:39;97341.31;;;8.15;100.00
5283;BME280;15376;48.540;9.268;2024-02-16T01:38:05;97342.94;;;8.24;100.00
5283;BME280;15376;48.540;9.268;2024-02-16T01:40:30;97357.31;;;8.38;100.00
5283;BME280;15376;48.540;9.268;2024-02-16T01:42:56;97359.31;;;8.35;100.00
5283;BME280;15376;48.540;9.268;2024-02-16T01:45:22;97356.00;;;8.33;100.00
5283;BME280;15376;48.540;9.268;2024-02-16T01:47:52;97355.03;;;8.18;100.00
5283;BME280;15376;48.540;9.268;2024-02-16T01:50:19;97327.38;;;7.90;100.00
5283;BME280;15376;48.540;9.268;2024-02-16T01:52:46;97365.97;;;8.07;100.00
5283;BME280;15376;48.540;9.268;2024-02-16T01:55:13;97367.13;;;8.04;100.00
5283;BME280;15376;48.540;9.268;2024-02-16T01:57:46;97363.63;;;8.12;100.00
5283;BME280;15376;48.540;9.268;2024-02-16T02:00:12;97361.63;;;8.22;100.00
5283;BME280;15376;48.540;9.268;2024-02-16T02:02:40;97328.13;;;8.07;100.00
5283;BME280;15376;48.540;9.268;2024-02-16T02:05:06;97350.72;;;8.33;100.00
5283;BME280;15376;48.540;9.268;2024-02-16T02:07:32;97355.31;;;8.40;100.00
5283;BME280;15376;48.540;9.268;2024-02-16T02:09:57;97355.66;;;8.28;100.00
5283;BME280;15376;48.540;9.268;2024-02-16T02:12:22;97340.78;;;8.27;100.00
5283;BME280;15376;48.540;9.268;2024-02-16T02:14:49;97343.41;;;8.35;100.00
5283;BME280;15376;48.540;9.268;2024-02-16T02:17:15;97315.97;;;8.28;100.00
5283;BME280;15376;48.540;9.268;2024-02-16T02:19:41;97341.53;;;8.44;100.00
5283;BME280;15376;48.540;9.268;2024-02-16T02:22:24;97332.50;;;8.39;100.00
5283;BME280;15376;48.540;9.268;2024-02-16T02:24:52;97341.03;;;8.49;100.00
5283;BME280;15376;48.540;9.268;2024-02-16T02:27:19;97342.84;;;8.48;100.00
5283;BME280;15376;48.540;9.268;2024-02-16T02:29:44;97334.50;;;8.37;100.00
5283;BME280;15376;48.540;9.268;2024-02-16T02:32:09;97315.34;;;8.18;100.00
5283;BME280;15376;48.540;9.268;2024-02-16T02:34:35;97333.19;;;8.24;100.00
5283;BME280;15376;48.540;9.268;2024-02-16T02:37:03;97329.38;;;8.27;100.00
5283;BME280;15376;48.540;9.268;2024-02-16T02:39:32;97327.72;;;8.26;100.00
5283;BME280;15376;48.540;9.268;2024-02-16T02:41:57;97324.94;;;8.19;100.00
5283;BME280;15376;48.540;9.268;2024-02-16T02:44:24;97323.94;;;8.20;100.00
5283;BME280;15376;48.540;9.268;2024-02-16T02:46:50;97324.94;;;8.19;100.00
5283;BME280;15376;48.540;9.268;2024-02-16T02:49:15;97322.28;;;8.19;100.00
5283;BME280;15376;48.540;9.268;2024-02-16T02:51:40;97263.28;;;7.80;100.00
5283;BME280;15376;48.540;9.268;2024-02-16T02:54:06;97301.19;;;8.03;100.00
5283;BME280;15376;48.540;9.268;2024-02-16T02:56:31;97324.75;;;8.21;100.00
5283;BME280;15376;48.540;9.268;2024-02-16T02:58:57;97322.78;;;8.23;100.00
5283;BME280;15376;48.540;9.268;2024-02-16T03:01:22;97325.25;;;8.24;100.00
5283;BME280;15376;48.540;9.268;2024-02-16T03:03:48;97323.59;;;8.23;100.00
5283;BME280;15376;48.540;9.268;2024-02-16T03:06:20;97296.88;;;8.10;100.00
5283;BME280;15376;48.540;9.268;2024-02-16T03:08:46;97328.19;;;8.29;100.00
5283;BME280;15376;48.540;9.268;2024-02-16T03:11:14;97320.78;;;8.25;100.00
5283;BME280;15376;48.540;9.268;2024-02-16T03:13:39;97330.03;;;8.29;100.00
5283;BME280;15376;48.540;9.268;2024-02-16T03:16:05;97277.22;;;8.04;100.00
5283;BME280;15376;48.540;9.268;2024-02-16T03:18:31;97322.44;;;8.34;100.00
5283;BME280;15376;48.540;9.268;2024-02-16T03:20:57;97311.38;;;8.22;100.00
5283;BME280;15376;48.540;9.268;2024-02-16T03:23:23;97322.00;;;8.06;100.00
5283;BME280;15376;48.540;9.268;2024-02-16T03:25:48;97325.88;;;7.95;100.00
5283;BME280;15376;48.540;9.268;2024-02-16T03:28:14;97318.44;;;7.91;100.00
5283;BME280;15376;48.540;9.268;2024-02-16T03:30:41;97323.06;;;7.89;100.00
5283;BME280;15376;48.540;9.268;2024-02-16T03:33:07;97313.63;;;7.94;100.00
5283;BME280;15376;48.540;9.268;2024-02-16T03:35:33;97295.19;;;7.78;100.00
5283;BME280;15376;48.540;9.268;2024-02-16T03:37:58;97322.41;;;7.95;100.00
5283;BME280;15376;48.540;9.268;2024-02-16T03:40:24;97318.41;;;7.99;100.00
5283;BME280;15376;48.540;9.268;2024-02-16T03:42:52;97311.75;;;8.03;100.00
5283;BME280;15376;48.540;9.268;2024-02-16T03:45:19;97311.16;;;7.93;100.00
5283;BME280;15376;48.540;9.268;2024-02-16T03:47:44;97327.81;;;8.01;100.00
5283;BME280;15376;48.540;9.268;2024-02-16T03:50:10;97326.69;;;7.96;100.00
5283;BME280;15376;48.540;9.268;2024-02-16T03:52:36;97316.75;;;7.98;100.00
5283;BME280;15376;48.540;9.268;2024-02-16T03:55:01;97320.69;;;8.02;100.00
5283;BME280;15376;48.540;9.268;2024-02-16T03:57:27;97298.53;;;8.03;100.00
5283;BME280;15376;48.540;9.268;2024-02-16T03:59:52;97307.59;;;8.17;100.00
5283;BME280;15376;48.540;9.268;2024-02-16T04:02:18;97325.91;;;8.26;100.00
5283;BME280;15376;48.540;9.268;2024-02-16T04:04:44;97313.03;;;8.15;100.00
5283;BME280;15376;48.540;9.268;2024-02-16T04:07:09;97325.94;;;8.18;100.00
5283;BME280;15376;48.540;9.268;2024-02-16T04:09:34;97322.63;;;8.16;100.00
5283;BME280;15376;48.540;9.268;2024-02-16T04:12:03;97328.25;;;8.13;100.00
5283;BME280;15376;48.540;9.268;2024-02-16T04:14:31;97320.31;;;8.13;100.00
5283;BME280;15376;48.540;9.268;2024-02-16T04:16:59;97322.97;;;8.13;100.00
5283;BME280;15376;48.540;9.268;2024-02-16T04:19:25;97333.22;;;8.16;100.00
5283;BME280;15376;48.540;9.268;2024-02-16T04:21:51;97335.16;;;8.30;100.00
5283;BME280;15376;48.540;9.268;2024-02-16T04:24:16;97341.44;;;8.29;100.00
5283;BME280;15376;48.540;9.268;2024-02-16T04:26:42;97330.41;;;8.18;100.00
5283;BME280;15376;48.540;9.268;2024-02-16T04:29:07;97344.09;;;8.21;100.00
5283;BME280;15376;48.540;9.268;2024-02-16T04:31:32;97339.31;;;8.17;100.00
5283;BME280;15376;48.540;9.268;2024-02-16T04:33:58;97329.00;;;7.99;100.00
5283;BME280;15376;48.540;9.268;2024-02-16T04:36:24;97339.84;;;8.04;100.00
5283;BME280;15376;48.540;9.268;2024-02-16T04:38:49;97347.50;;;7.99;100.00
5283;BME280;15376;48.540;9.268;2024-02-16T04:41:15;97316.81;;;7.74;100.00
5283;BME280;15376;48.540;9.268;2024-02-16T04:43:41;97354.13;;;7.87;100.00
5283;BME280;15376;48.540;9.268;2024-02-16T04:46:06;97355.63;;;7.81;100.00
5283;BME280;15376;48.540;9.268;2024-02-16T04:48:31;97329.41;;;7.63;100.00
5283;BME280;15376;48.540;9.268;2024-02-16T04:50:57;97344.25;;;7.64;100.00
5283;BME280;15376;48.540;9.268;2024-02-16T04:53:23;97355.81;;;7.72;100.00
5283;BME280;15376;48.540;9.268;2024-02-16T04:55:48;97350.53;;;7.63;100.00
5283;BME280;15376;48.540;9.268;2024-02-16T04:58:14;97355.47;;;7.75;100.00
5283;BME280;15376;48.540;9.268;2024-02-16T05:00:39;97353.66;;;7.83;100.00
5283;BME280;15376;48.540;9.268;2024-02-16T05:03:04;97325.09;;;7.70;100.00
5283;BME280;15376;48.540;9.268;2024-02-16T05:05:30;97347.53;;;7.91;100.00
5283;BME280;15376;48.540;9.268;2024-02-16T05:07:58;97347.19;;;7.94;100.00
5283;BME280;15376;48.540;9.268;2024-02-16T05:10:24;97339.94;;;7.88;100.00
5283;BME280;15376;48.540;9.268;2024-02-16T05:12:49;97350.66;;;7.94;100.00
5283;BME280;15376;48.540;9.268;2024-02-16T05:15:15;97353.78;;;7.98;100.00
5283;BME280;15376;48.540;9.268;2024-02-16T05:17:40;97352.78;;;7.99;100.00
5283;BME280;15376;48.540;9.268;2024-02-16T05:20:12;97328.72;;;7.78;100.00
5283;BME280;15376;48.540;9.268;2024-02-16T05:22:46;97358.78;;;7.85;100.00
5283;BME280;15376;48.540;9.268;2024-02-16T05:25:12;97353.66;;;7.83;100.00
5283;BME280;15376;48.540;9.268;2024-02-16T05:27:38;97344.25;;;7.81;100.00
5283;BME280;15376;48.540;9.268;2024-02-16T05:30:06;97354.78;;;7.97;100.00
5283;BME280;15376;48.540;9.268;2024-02-16T05:32:35;97349.94;;;8.00;100.00
5283;BME280;15376;48.540;9.268;2024-02-16T05:35:01;97359.81;;;8.15;100.00
5283;BME280;15376;48.540;9.268;2024-02-16T05:37:30;97309.84;;;7.89;100.00
5283;BME280;15376;48.540;9.268;2024-02-16T05:39:57;97361.47;;;8.24;100.00
5283;BME280;15376;48.540;9.268;2024-02-16T05:42:33;97356.16;;;8.24;100.00
5283;BME280;15376;48.540;9.268;2024-02-16T05:44:58;97362.63;;;8.21;100.00
5283;BME280;15376;48.540;9.268;2024-02-16T05:47:24;97361.81;;;8.13;100.00
5283;BME280;15376;48.540;9.268;2024-02-16T05:49:49;97366.78;;;8.08;100.00
5283;BME280;15376;48.540;9.268;2024-02-16T05:52:15;97369.66;;;7.98;100.00
5283;BME280;15376;48.540;9.268;2024-02-16T05:54:47;97376.06;;;8.03;100.00
5283;BME280;15376;48.540;9.268;2024-02-16T05:57:15;97345.88;;;7.82;100.00
5283;BME280;15376;48.540;9.268;2024-02-16T05:59:42;97379.91;;;7.93;100.00
5283;BME280;15376;48.540;9.268;2024-02-16T06:02:08;97382.50;;;8.01;100.00
5283;BME280;15376;48.540;9.268;2024-02-16T06:04:34;97364.38;;;7.90;100.00
5283;BME280;15376;48.540;9.268;2024-02-16T06:06:59;97378.03;;;8.01;100.00
5283;BME280;15376;48.540;9.268;2024-02-16T06:09:25;97371.25;;;8.07;100.00
5283;BME280;15376;48.540;9.268;2024-02-16T06:11:51;97390.03;;;8.28;100.00
5283;BME280;15376;48.540;9.268;2024-02-16T06:14:16;97387.41;;;8.28;100.00
5283;BME280;15376;48.540;9.268;2024-02-16T06:16:41;97366.94;;;8.14;100.00
5283;BME280;15376;48.540;9.268;2024-02-16T06:19:07;97397.31;;;8.26;100.00
5283;BME280;15376;48.540;9.268;2024-02-16T06:21:34;97374.25;;;8.04;100.00
5283;BME280;15376;48.540;9.268;2024-02-16T06:23:59;97401.66;;;8.11;100.00
5283;BME280;15376;48.540;9.268;2024-02-16T06:26:24;97405.47;;;8.09;100.00
5283;BME280;15376;48.540;9.268;2024-02-16T06:28:50;97377.28;;;7.85;100.00
5283;BME280;15376;48.540;9.268;2024-02-16T06:31:15;97391.16;;;7.79;100.00
5283;BME280;15376;48.540;9.268;2024-02-16T06:33:40;97424.19;;;7.83;100.00
5283;BME280;15376;48.540;9.268;2024-02-16T06:36:06;97396.16;;;7.57;100.00
5283;BME280;15376;48.540;9.268;2024-02-16T06:38:36;97426.03;;;7.66;100.00
5283;BME280;15376;48.540;9.268;2024-02-16T06:41:01;97431.81;;;7.61;100.00
5283;BME280;15376;48.540;9.268;2024-02-16T06:43:28;97413.66;;;7.42;100.00
5283;BME280;15376;48.540;9.268;2024-02-16T06:45:54;97431.50;;;7.48;100.00
5283;BME280;15376;48.540;9.268;2024-02-16T06:48:21;97427.53;;;7.44;100.00
5283;BME280;15376;48.540;9.268;2024-02-16T06:50:47;97436.44;;;7.43;100.00
5283;BME280;15376;48.540;9.268;2024-02-16T06:53:12;97446.03;;;7.44;100.00
5283;BME280;15376;48.540;9.268;2024-02-16T06:55:37;97450.97;;;7.47;100.00
5283;BME280;15376;48.540;9.268;2024-02-16T06:58:03;97413.13;;;7.22;100.00
5283;BME280;15376;48.540;9.268;2024-02-16T07:00:28;97416.94;;;7.28;100.00
5283;BME280;15376;48.540;9.268;2024-02-16T07:02:54;97454.28;;;7.57;100.00
5283;BME280;15376;48.540;9.268;2024-02-16T07:05:19;97449.97;;;7.64;100.00
5283;BME280;15376;48.540;9.268;2024-02-16T07:07:44;97450.97;;;7.72;100.00
5283;BME280;15376;48.540;9.268;2024-02-16T07:10:10;97451.97;;;7.79;100.00
5283;BME280;15376;48.540;9.268;2024-02-16T07:12:39;97449.97;;;7.89;100.00
5283;BME280;15376;48.540;9.268;2024-02-16T07:15:05;97448.31;;;7.96;100.00
5283;BME280;15376;48.540;9.268;2024-02-16T07:17:31;97434.59;;;7.68;100.00
5283;BME280;15376;48.540;9.268;2024-02-16T07:19:56;97427.03;;;7.49;100.00
5283;BME280;15376;48.540;9.268;2024-02-16T07:22:21;97454.63;;;7.54;100.00
5283;BME280;15376;48.540;9.268;2024-02-16T07:24:47;97440.56;;;7.46;100.00
5283;BME280;15376;48.540;9.268;2024-02-16T07:27:12;97460.88;;;7.78;100.00
5283;BME280;15376;48.540;9.268;2024-02-16T07:29:38;97456.09;;;7.89;100.00
5283;BME280;15376;48.540;9.268;2024-02-16T07:32:07;97450.09;;;8.03;100.00
5283;BME280;15376;48.540;9.268;2024-02-16T07:34:32;97453.38;;;8.22;100.00
5283;BME280;15376;48.540;9.268;2024-02-16T07:36:57;97448.91;;;8.39;100.00
5283;BME280;15376;48.540;9.268;2024-02-16T07:39:23;97455.63;;;8.49;100.00
5283;BME280;15376;48.540;9.268;2024-02-16T07:41:49;97451.81;;;8.60;100.00
5283;BME280;15376;48.540;9.268;2024-02-16T07:44:14;97448.16;;;8.61;100.00
5283;BME280;15376;48.540;9.268;2024-02-16T07:46:41;97452.47;;;8.62;100.00
5283;BME280;15376;48.540;9.268;2024-02-16T07:49:06;97452.00;;;8.50;100.00
5283;BME280;15376;48.540;9.268;2024-02-16T07:51:32;97455.50;;;8.43;100.00
5283;BME280;15376;48.540;9.268;2024-02-16T07:53:57;97450.03;;;8.44;100.00
5283;BME280;15376;48.540;9.268;2024-02-16T07:56:23;97457.63;;;8.47;100.00
5283;BME280;15376;48.540;9.268;2024-02-16T07:58:48;97460.09;;;8.57;100.00
5283;BME280;15376;48.540;9.268;2024-02-16T08:01:13;97458.75;;;8.61;100.00
5283;BME280;15376;48.540;9.268;2024-02-16T08:03:41;97437.91;;;8.58;100.00
5283;BME280;15376;48.540;9.268;2024-02-16T08:06:07;97471.41;;;8.82;100.00
5283;BME280;15376;48.540;9.268;2024-02-16T08:08:34;97467.75;;;8.83;100.00
5283;BME280;15376;48.540;9.268;2024-02-16T08:10:59;97451.44;;;8.71;100.00
5283;BME280;15376;48.540;9.268;2024-02-16T08:13:24;97462.00;;;8.79;100.00
5283;BME280;15376;48.540;9.268;2024-02-16T08:15:50;97442.19;;;8.67;100.00
5283;BME280;15376;48.540;9.268;2024-02-16T08:18:17;97470.88;;;8.86;100.00
5283;BME280;15376;48.540;9.268;2024-02-16T08:20:43;97440.53;;;8.66;100.00
5283;BME280;15376;48.540;9.268;2024-02-16T08:23:08;97444.66;;;8.68;100.00
5283;BME280;15376;48.540;9.268;2024-02-16T08:25:33;97479.78;;;8.93;100.00
5283;BME280;15376;48.540;9.268;2024-02-16T08:27:59;97451.03;;;8.82;100.00
5283;BME280;15376;48.540;9.268;2024-02-16T08:30:24;97479.97;;;9.23;100.00
5283;BME280;15376;48.540;9.268;2024-02-16T08:32:50;97466.44;;;9.41;100.00
5283;BME280;15376;48.540;9.268;2024-02-16T08:35:16;97454.91;;;9.56;100.00
5283;BME280;15376;48.540;9.268;2024-02-16T08:37:42;97487.75;;;9.93;100.00
5283;BME280;15376;48.540;9.268;2024-02-16T08:40:07;97491.78;;;10.03;100.00
5283;BME280;15376;48.540;9.268;2024-02-16T08:42:36;97496.81;;;10.21;100.00
5283;BME280;15376;48.540;9.268;2024-02-16T08:45:02;97491.38;;;10.38;100.00
5283;BME280;15376;48.540;9.268;2024-02-16T08:47:27;97491.72;;;10.64;100.00
5283;BME280;15376;48.540;9.268;2024-02-16T08:49:53;97480.63;;;10.90;100.00
5283;BME280;15376;48.540;9.268;2024-02-16T08:52:18;97475.97;;;11.28;100.00
5283;BME280;15376;48.540;9.268;2024-02-16T08:54:43;97485.44;;;11.73;99.34
5283;BME280;15376;48.540;9.268;2024-02-16T08:57:09;97480.41;;;11.99;96.66
5283;BME280;15376;48.540;9.268;2024-02-16T08:59:35;97475.63;;;12.16;96.28
5283;BME280;15376;48.540;9.268;2024-02-16T09:02:00;97492.78;;;12.42;94.43
5283;BME280;15376;48.540;9.268;2024-02-16T09:04:26;97501.34;;;12.65;92.34
5283;BME280;15376;48.540;9.268;2024-02-16T09:06:51;97503.69;;;12.81;93.30
5283;BME280;15376;48.540;9.268;2024-02-16T09:09:16;97471.25;;;13.12;89.54
5283;BME280;15376;48.540;9.268;2024-02-16T09:11:42;97487.25;;;13.99;88.82
5283;BME280;15376;48.540;9.268;2024-02-16T09:14:07;97501.97;;;15.08;82.04
5283;BME280;15376;48.540;9.268;2024-02-16T09:16:32;97503.25;;;15.88;78.86
5283;BME280;15376;48.540;9.268;2024-02-16T09:18:58;97499.97;;;16.67;72.94
5283;BME280;15376;48.540;9.268;2024-02-16T09:21:24;97502.56;;;17.28;69.41
5283;BME280;15376;48.540;9.268;2024-02-16T09:23:52;97497.09;;;17.53;66.85
5283;BME280;15376;48.540;9.268;2024-02-16T09:26:18;97500.94;;;17.76;64.38
5283;BME280;15376;48.540;9.268;2024-02-16T09:28:43;97501.88;;;18.76;63.71
5283;BME280;15376;48.540;9.268;2024-02-16T09:31:13;97497.44;;;19.74;62.27
5283;BME280;15376;48.540;9.268;2024-02-16T09:33:38;97511.06;;;20.96;56.72
5283;BME280;15376;48.540;9.268;2024-02-16T09:36:04;97509.09;;;21.74;54.75
5283;BME280;15376;48.540;9.268;2024-02-16T09:38:30;97518.97;;;22.39;50.26
5283;BME280;15376;48.540;9.268;2024-02-16T09:40:55;97514.06;;;23.05;50.59
5283;BME280;15376;48.540;9.268;2024-02-16T09:43:25;97521.13;;;23.63;45.44
5283;BME280;15376;48.540;9.268;2024-02-16T09:45:58;97518.34;;;24.31;44.02
5283;BME280;15376;48.540;9.268;2024-02-16T09:48:27;97518.78;;;23.87;44.03
5283;BME280;15376;48.540;9.268;2024-02-16T09:50:56;97524.31;;;24.53;43.54
5283;BME280;15376;48.540;9.268;2024-02-16T09:53:25;97527.75;;;24.03;41.16
5283;BME280;15376;48.540;9.268;2024-02-16T09:55:51;97526.75;;;25.00;40.30
5283;BME280;15376;48.540;9.268;2024-02-16T09:58:18;97528.09;;;24.87;40.44
5283;BME280;15376;48.540;9.268;2024-02-16T10:00:54;97541.88;;;23.37;39.03
5283;BME280;15376;48.540;9.268;2024-02-16T10:03:24;97519.81;;;22.76;40.00
5283;BME280;15376;48.540;9.268;2024-02-16T10:05:51;97546.03;;;22.12;40.99
5283;BME280;15376;48.540;9.268;2024-02-16T10:08:17;97541.94;;;20.50;43.88
5283;BME280;15376;48.540;9.268;2024-02-16T10:10:42;97550.19;;;20.43;43.70
5283;BME280;15376;48.540;9.268;2024-02-16T10:13:08;97526.38;;;20.23;44.71
5283;BME280;15376;48.540;9.268;2024-02-16T10:15:36;97553.59;;;20.22;45.42
5283;BME280;15376;48.540;9.268;2024-02-16T10:18:03;97559.19;;;20.49;44.85
5283;BME280;15376;48.540;9.268;2024-02-16T10:20:30;97562.56;;;19.19;46.69
5283;BME280;15376;48.540;9.268;2024-02-16T10:23:08;97557.75;;;18.21;49.61
5283;BME280;15376;48.540;9.268;2024-02-16T10:25:34;97551.72;;;17.29;51.87
5283;BME280;15376;48.540;9.268;2024-02-16T10:28:04;97556.63;;;17.50;53.49
5283;BME280;15376;48.540;9.268;2024-02-16T10:30:34;97554.50;;;17.89;52.82
5283;BME280;15376;48.540;9.268;2024-02-16T10:33:00;97551.50;;;17.97;52.90
5283;BME280;15376;48.540;9.268;2024-02-16T10:35:28;97557.88;;;17.84;52.91
5283;BME280;15376;48.540;9.268;2024-02-16T10:37:58;97554.09;;;17.37;53.47
5283;BME280;15376;48.540;9.268;2024-02-16T10:40:27;97551.13;;;17.09;54.53
5283;BME280;15376;48.540;9.268;2024-02-16T10:42:53;97554.56;;;17.16;55.06
5283;BME280;15376;48.540;9.268;2024-02-16T10:45:18;97540.94;;;16.74;55.80
5283;BME280;15376;48.540;9.268;2024-02-16T10:47:44;97552.94;;;16.90;55.75
5283;BME280;15376;48.540;9.268;2024-02-16T10:50:10;97546.47;;;16.97;56.31
5283;BME280;15376;48.540;9.268;2024-02-16T10:52:39;97555.50;;;17.40;55.89
5283;BME280;15376;48.540;9.268;2024-02-16T10:55:07;97551.06;;;17.63;55.26
5283;BME280;15376;48.540;9.268;2024-02-16T10:57:35;97546.94;;;17.67;55.67
5283;BME280;15376;48.540;9.268;2024-02-16T11:00:07;97534.47;;;17.37;56.99
5283;BME280;15376;48.540;9.268;2024-02-16T11:02:50;97517.69;;;17.23;56.07
5283;BME280;15376;48.540;9.268;2024-02-16T11:05:18;97549.44;;;16.89;57.91
5283;BME280;15376;48.540;9.268;2024-02-16T11:07:44;97539.19;;;17.05;56.90
5283;BME280;15376;48.540;9.268;2024-02-16T11:10:12;97547.09;;;17.36;57.35
5283;BME280;15376;48.540;9.268;2024-02-16T11:12:38;97547.09;;;17.36;57.33
5283;BME280;15376;48.540;9.268;2024-02-16T11:15:11;97550.97;;;17.04;57.42
5283;BME280;15376;48.540;9.268;2024-02-16T11:17:36;97533.28;;;16.78;58.37
5283;BME280;15376;48.540;9.268;2024-02-16T11:20:01;97512.72;;;16.40;59.47
5283;BME280;15376;48.540;9.268;2024-02-16T11:22:29;97546.47;;;16.79;59.73
5283;BME280;15376;48.540;9.268;2024-02-16T11:24:54;97552.28;;;16.94;60.98
5283;BME280;15376;48.540;9.268;2024-02-16T11:27:20;97554.44;;;16.86;59.86
5283;BME280;15376;48.540;9.268;2024-02-16T11:29:46;97547.91;;;17.00;59.68
5283;BME280;15376;48.540;9.268;2024-02-16T11:32:12;97556.44;;;16.90;60.71
5283;BME280;15376;48.540;9.268;2024-02-16T11:34:38;97564.66;;;16.95;60.68
5283;BME280;15376;48.540;9.268;2024-02-16T11:37:04;97561.59;;;16.92;60.81
5283;BME280;15376;48.540;9.268;2024-02-16T11:39:30;97550.72;;;16.87;60.87
5283;BME280;15376;48.540;9.268;2024-02-16T11:42:07;97555.25;;;16.86;62.38
5283;BME280;15376;48.540;9.268;2024-02-16T11:44:36;97552.28;;;16.94;61.62
5283;BME280;15376;48.540;9.268;2024-02-16T11:47:02;97550.69;;;16.69;62.27
5283;BME280;15376;48.540;9.268;2024-02-16T11:49:31;97520.13;;;16.45;62.26
5283;BME280;15376;48.540;9.268;2024-02-16T11:51:59;97554.19;;;16.69;62.79
5283;BME280;15376;48.540;9.268;2024-02-16T11:54:24;97543.97;;;16.53;63.00
5283;BME280;15376;48.540;9.268;2024-02-16T11:56:51;97548.00;;;16.69;62.57
5283;BME280;15376;48.540;9.268;2024-02-16T11:59:18;97551.44;;;16.76;63.18
5283;BME280;15376;48.540;9.268;2024-02-16T12:01:55;97550.31;;;16.83;61.95
5283;BME280;15376;48.540;9.268;2024-02-16T12:06:59;97508.56;;;16.44;63.14
5283;BME280;15376;48.540;9.268;2024-02-16T12:09:25;97550.53;;;16.82;62.22
5283;BME280;15376;48.540;9.268;2024-02-16T12:11:52;97546.31;;;16.74;61.94
5283;BME280;15376;48.540;9.268;2024-02-16T12:14:19;97541.31;;;16.78;62.45
5283;BME280;15376;48.540;9.268;2024-02-16T12:16:48;97553.44;;;16.80;63.23
5283;BME280;15376;48.540;9.268;2024-02-16T12:19:15;97549.16;;;16.79;63.92
5283;BME280;15376;48.540;9.268;2024-02-16T12:21:40;97549.88;;;16.86;62.79
5283;BME280;15376;48.540;9.268;2024-02-16T12:24:06;97552.88;;;16.78;63.29
5283;BME280;15376;48.540;9.268;2024-02-16T12:26:31;97542.44;;;16.70;63.55
5283;BME280;15376;48.540;9.268;2024-02-16T12:28:56;97557.78;;;16.81;63.16
5283;BME280;15376;48.540;9.268;2024-02-16T12:31:22;97560.78;;;16.91;63.51
5283;BME280;15376;48.540;9.268;2024-02-16T12:33:48;97544.91;;;16.90;63.14
5283;BME280;15376;48.540;9.268;2024-02-16T12:36:14;97549.50;;;16.83;63.39
5283;BME280;15376;48.540;9.268;2024-02-16T12:38:40;97559.41;;;16.82;63.83
5283;BME280;15376;48.540;9.268;2024-02-16T12:41:05;97559.78;;;16.86;63.74
5283;BME280;15376;48.540;9.268;2024-02-16T12:43:31;97553.16;;;16.88;63.72
5283;BME280;15376;48.540;9.268;2024-02-16T12:45:57;97554.56;;;16.73;63.34
5283;BME280;15376;48.540;9.268;2024-02-16T12:48:24;97561.97;;;16.77;64.71
5283;BME280;15376;48.540;9.268;2024-02-16T12:50:50;97565.38;;;16.84;63.44
5283;BME280;15376;48.540;9.268;2024-02-16T12:53:17;97563.06;;;16.88;64.34
5283;BME280;15376;48.540;9.268;2024-02-16T12:55:42;97566.59;;;16.88;64.98
5283;BME280;15376;48.540;9.268;2024-02-16T12:58:08;97549.00;;;16.74;65.46
5283;BME280;15376;48.540;9.268;2024-02-16T13:00:33;97557.78;;;16.81;64.55
5283;BME280;15376;48.540;9.268;2024-02-16T13:02:59;97528.06;;;16.58;65.34
5283;BME280;15376;48.540;9.268;2024-02-16T13:05:25;97522.44;;;16.66;65.31
5283;BME280;15376;48.540;9.268;2024-02-16T13:07:50;97558.84;;;16.98;64.84